Time;durP1;ratioP1;P1;durP2;ratioP2;P2;SDS_P1;SDS_P2;PMS_P1;PMS_P2;Temp;Humidity;BMP_temperature;BMP_pressure;BME280_temperature;BME280_humidity;BME280_pressure;Samples;Min_cycle;Max_cycle;Signal;HPM_P1;HPM_P2
2022/08/29 00:02:06;;;;;;;;;;;;;;;12.73;100.00;102120.81;6512578;22;19914;-79
2022/08/29 00:04:38;;;;;;;;;;;;;;;12.74;100.00;102121.66;6539999;22;19910;-78
2022/08/29 00:07:09;;;;;;;;;;;;;;;12.71;100.00;102122.78;6513118;22;19908;-78
2022/08/29 00:09:40;;;;;;;;;;;;;;;12.67;100.00;102123.97;6512458;22;20038;-79
2022/08/29 00:12:11;;;;;;;;;;;;;;;12.66;100.00;102124.97;6540110;22;19965;-78
2022/08/29 00:14:42;;;;;;;;;;;;;;;12.65;100.00;102128.63;6539528;22;19911;-78
2022/08/29 00:17:14;;;;;;;;;;;;;;;12.64;100.00;102122.44;6540718;22;19907;-78
2022/08/29 00:19:45;;;;;;;;;;;;;;;12.66;100.00;102120.47;6539238;22;19904;-79
2022/08/29 00:22:16;;;;;;;;;;;;;;;12.67;100.00;102119.50;6539177;22;19911;-78
2022/08/29 00:24:47;;;;;;;;;;;;;;;12.68;100.00;102115.84;6539408;22;19914;-78
2022/08/29 00:27:18;;;;;;;;;;;;;;;12.68;100.00;102123.88;6513055;22;19954;-78
2022/08/29 00:29:50;;;;;;;;;;;;;;;12.64;100.00;102119.75;6538478;22;19911;-79
2022/08/29 00:32:21;;;;;;;;;;;;;;;12.65;100.00;102116.06;6540058;22;19903;-78
2022/08/29 00:34:52;;;;;;;;;;;;;;;12.65;100.00;102117.91;6539309;22;19907;-78
2022/08/29 00:37:23;;;;;;;;;;;;;;;12.64;100.00;102118.88;6539184;22;19929;-78
2022/08/29 00:39:54;;;;;;;;;;;;;;;12.57;100.00;102120.34;6511936;22;19914;-79
2022/08/29 00:42:26;;;;;;;;;;;;;;;12.52;100.00;102131.44;6539467;22;19907;-78
2022/08/29 00:44:57;;;;;;;;;;;;;;;12.53;100.00;102126.94;6538209;22;19907;-79
2022/08/29 00:47:31;;;;;;;;;;;;;;;12.46;100.00;102126.56;6539876;22;20344;-78
2022/08/29 00:50:06;;;;;;;;;;;;;;;12.34;100.00;102130.22;6511618;22;19938;-78
2022/08/29 00:52:39;;;;;;;;;;;;;;;12.17;100.00;102127.09;6538020;22;19915;-78
2022/08/29 00:55:13;;;;;;;;;;;;;;;12.03;100.00;102132.69;6539441;22;19914;-78
2022/08/29 00:57:47;;;;;;;;;;;;;;;11.91;100.00;102121.97;6539023;22;19904;-78
2022/08/29 01:00:18;;;;;;;;;;;;;;;11.82;100.00;102129.84;6539829;22;19907;-78
2022/08/29 01:02:50;;;;;;;;;;;;;;;11.81;100.00;102130.78;6539558;22;19914;-78
2022/08/29 01:05:22;;;;;;;;;;;;;;;11.76;100.00;102130.28;6512391;22;19904;-78
2022/08/29 01:07:54;;;;;;;;;;;;;;;11.70;100.00;102127.13;6540388;22;19914;-78
2022/08/29 01:13:15;;;;;;;;;;;;;;;11.65;100.00;102133.78;6538737;22;20325;-78
2022/08/29 01:15:46;;;;;;;;;;;;;;;11.46;100.00;102127.19;6511953;22;19954;-78
2022/08/29 01:18:18;;;;;;;;;;;;;;;11.32;100.00;102127.38;6539484;22;19950;-78
2022/08/29 01:21:00;;;;;;;;;;;;;;;11.28;100.00;102132.09;6539422;22;19969;-78
2022/08/29 01:23:48;;;;;;;;;;;;;;;11.33;100.00;102137.94;6538759;22;19905;-78
2022/08/29 01:26:20;;;;;;;;;;;;;;;11.33;100.00;102137.09;6538868;22;19904;-78
2022/08/29 01:28:52;;;;;;;;;;;;;;;11.31;100.00;102139.03;6539778;22;20227;-78
2022/08/29 01:31:25;;;;;;;;;;;;;;;11.24;100.00;102135.97;6539365;22;19911;-78
2022/08/29 01:33:58;;;;;;;;;;;;;;;11.22;100.00;102126.38;6538838;22;20246;-78
2022/08/29 01:36:49;;;;;;;;;;;;;;;11.33;100.00;102126.41;6538513;22;19926;-78
2022/08/29 01:39:21;;;;;;;;;;;;;;;11.35;100.00;102129.81;6512375;22;19990;-78
2022/08/29 01:41:55;;;;;;;;;;;;;;;11.38;100.00;102116.25;6538250;22;20272;-78
2022/08/29 01:44:26;;;;;;;;;;;;;;;11.31;100.00;102117.69;6511642;22;20245;-78
2022/08/29 01:46:58;;;;;;;;;;;;;;;11.24;100.00;102125.28;6539497;22;19907;-78
2022/08/29 01:49:31;;;;;;;;;;;;;;;11.11;100.00;102120.00;6513048;22;19908;-77
2022/08/29 01:52:03;;;;;;;;;;;;;;;11.07;100.00;102129.22;6539130;22;19916;-78
2022/08/29 01:54:34;;;;;;;;;;;;;;;11.02;100.00;102126.03;6540044;22;19904;-77
2022/08/29 01:57:06;;;;;;;;;;;;;;;10.94;100.00;102123.09;6539642;22;19916;-77
2022/08/29 01:59:37;;;;;;;;;;;;;;;10.91;100.00;102124.16;6539409;22;20337;-78
2022/08/29 02:02:22;;;;;;;;;;;;;;;10.85;100.00;102127.31;6539972;22;19914;-77
2022/08/29 02:04:57;;;;;;;;;;;;;;;10.67;100.00;102132.16;6540086;22;19911;-77
2022/08/29 02:07:28;;;;;;;;;;;;;;;10.45;100.00;102124.00;6539806;22;20362;-79
2022/08/29 02:09:59;;;;;;;;;;;;;;;10.33;100.00;102133.75;6540218;22;19994;-78
2022/08/29 02:12:31;;;;;;;;;;;;;;;10.25;100.00;102125.41;6540929;22;19911;-77
2022/08/29 02:15:03;;;;;;;;;;;;;;;10.26;100.00;102122.63;6540788;22;19908;-77
2022/08/29 02:17:35;;;;;;;;;;;;;;;10.22;100.00;102122.00;6540177;22;19904;-77
2022/08/29 02:20:07;;;;;;;;;;;;;;;10.10;100.00;102128.19;6540827;22;20150;-77
2022/08/29 02:22:39;;;;;;;;;;;;;;;9.98;100.00;102135.22;6512387;22;19915;-77
2022/08/29 02:28:02;;;;;;;;;;;;;;;9.81;100.00;102139.06;6539959;22;19903;-77
2022/08/29 02:30:33;;;;;;;;;;;;;;;9.78;100.00;102141.06;6540469;22;19911;-77
2022/08/29 02:33:04;;;;;;;;;;;;;;;9.76;100.00;102154.50;6540210;22;19978;-77
2022/08/29 02:35:36;;;;;;;;;;;;;;;9.81;100.00;102143.53;6540147;22;20241;-77
2022/08/29 02:38:07;;;;;;;;;;;;;;;9.92;100.00;102153.44;6540076;22;19914;-77
2022/08/29 02:40:38;;;;;;;;;;;;;;;10.00;100.00;102148.44;6540095;22;19911;-77
2022/08/29 02:43:10;;;;;;;;;;;;;;;10.05;100.00;102150.81;6540416;22;19907;-77
2022/08/29 02:45:42;;;;;;;;;;;;;;;10.01;100.00;102148.34;6513552;22;19908;-77
2022/08/29 02:48:13;;;;;;;;;;;;;;;10.00;100.00;102153.78;6539791;22;19985;-78
2022/08/29 02:50:46;;;;;;;;;;;;;;;10.01;100.00;102147.47;6540332;22;19935;-77
2022/08/29 02:53:18;;;;;;;;;;;;;;;9.94;100.00;102157.72;6539118;22;19947;-77
2022/08/29 02:55:50;;;;;;;;;;;;;;;9.98;100.00;102155.72;6513165;22;19908;-77
2022/08/29 02:58:22;;;;;;;;;;;;;;;10.18;100.00;102154.31;6512894;22;19907;-77
2022/08/29 03:00:53;;;;;;;;;;;;;;;10.26;100.00;102156.44;6539242;22;20022;-77
2022/08/29 03:03:25;;;;;;;;;;;;;;;10.29;100.00;102149.09;6539041;22;20330;-78
2022/08/29 03:05:57;;;;;;;;;;;;;;;10.44;100.00;102152.50;6538778;22;19969;-77
2022/08/29 03:08:28;;;;;;;;;;;;;;;10.50;100.00;102152.06;6539849;22;19908;-77
2022/08/29 03:10:59;;;;;;;;;;;;;;;10.49;100.00;102153.00;6540188;22;19934;-77
2022/08/29 03:13:32;;;;;;;;;;;;;;;10.51;100.00;102153.75;6540169;22;20281;-77
2022/08/29 03:16:03;;;;;;;;;;;;;;;10.56;100.00;102148.09;6540121;22;19914;-77
2022/08/29 03:18:35;;;;;;;;;;;;;;;10.51;100.00;102153.75;6539931;22;19938;-77
2022/08/29 03:21:13;;;;;;;;;;;;;;;10.46;100.00;102144.38;6513707;22;19911;-77
2022/08/29 03:23:44;;;;;;;;;;;;;;;10.44;100.00;102149.81;6513163;22;19926;-77
2022/08/29 03:26:16;;;;;;;;;;;;;;;10.42;100.00;102140.25;6539691;22;19907;-77
2022/08/29 03:28:47;;;;;;;;;;;;;;;10.39;100.00;102142.13;6540311;22;19930;-77
2022/08/29 03:31:19;;;;;;;;;;;;;;;10.28;100.00;102141.19;6540049;22;19903;-79
2022/08/29 03:33:50;;;;;;;;;;;;;;;10.12;100.00;102138.75;6540467;22;19938;-76
2022/08/29 03:36:25;;;;;;;;;;;;;;;10.08;100.00;102139.91;6512782;22;19915;-79
2022/08/29 03:38:57;;;;;;;;;;;;;;;9.96;100.00;102134.50;6540003;22;20334;-79
2022/08/29 03:41:29;;;;;;;;;;;;;;;9.96;100.00;102128.31;6539613;22;19904;-79
2022/08/29 03:44:00;;;;;;;;;;;;;;;9.98;100.00;102124.56;6540356;22;19950;-79
2022/08/29 03:46:31;;;;;;;;;;;;;;;9.99;100.00;102117.41;6539144;22;19907;-79
2022/08/29 03:49:03;;;;;;;;;;;;;;;10.07;100.00;102104.41;6539342;22;19919;-79
2022/08/29 03:51:35;;;;;;;;;;;;;;;10.23;100.00;102107.69;6539751;22;19914;-79
2022/08/29 03:54:06;;;;;;;;;;;;;;;10.48;100.00;102108.63;6539584;22;19915;-79
2022/08/29 03:56:37;;;;;;;;;;;;;;;10.61;100.00;102105.94;6538576;22;19907;-79
2022/08/29 03:59:09;;;;;;;;;;;;;;;10.74;100.00;102109.38;6512766;22;19904;-79
2022/08/29 04:01:41;;;;;;;;;;;;;;;10.82;100.00;102110.63;6539852;22;19957;-79
2022/08/29 04:05:05;;;;;;;;;;;;;;;10.88;100.00;102102.19;6539590;22;19990;-79
2022/08/29 04:07:05;;;;;;;;;;;;;;;11.00;100.00;102103.09;6539704;22;19903;-79
2022/08/29 04:09:36;;;;;;;;;;;;;;;11.04;100.00;102108.09;6539599;22;19911;-79
2022/08/29 04:12:10;;;;;;;;;;;;;;;11.07;100.00;102107.00;6539435;22;19914;-79
2022/08/29 04:14:41;;;;;;;;;;;;;;;10.92;100.00;102109.88;6539420;22;20369;-79
2022/08/29 04:17:12;;;;;;;;;;;;;;;10.77;100.00;102116.34;6539637;22;19942;-79
2022/08/29 04:19:44;;;;;;;;;;;;;;;10.60;100.00;102122.88;6538931;22;19954;-79
2022/08/29 04:22:15;;;;;;;;;;;;;;;10.45;100.00;102124.00;6539776;22;19907;-79
2022/08/29 04:24:46;;;;;;;;;;;;;;;10.37;100.00;102121.88;6538983;22;20272;-79
2022/08/29 04:27:17;;;;;;;;;;;;;;;10.44;100.00;102125.81;6545549;22;19907;-79
2022/08/29 04:29:48;;;;;;;;;;;;;;;10.42;100.00;102121.56;6565791;22;19930;-79
2022/08/29 04:32:20;;;;;;;;;;;;;;;10.49;100.00;102123.66;6560668;22;19937;-79
2022/08/29 04:34:54;;;;;;;;;;;;;;;10.62;100.00;102136.97;6554485;22;19907;-79
2022/08/29 04:37:25;;;;;;;;;;;;;;;10.66;100.00;102132.25;6553300;22;19934;-79
2022/08/29 04:39:57;;;;;;;;;;;;;;;10.71;100.00;102130.97;6540154;22;19903;-79
2022/08/29 04:42:29;;;;;;;;;;;;;;;10.79;100.00;102139.25;6540764;22;19910;-79
2022/08/29 04:45:01;;;;;;;;;;;;;;;10.79;100.00;102141.09;6512035;22;19914;-79
2022/08/29 04:47:35;;;;;;;;;;;;;;;10.78;100.00;102142.91;6539495;22;19908;-79
2022/08/29 04:50:07;;;;;;;;;;;;;;;10.81;100.00;102125.81;6538866;22;20049;-77
2022/08/29 04:52:39;;;;;;;;;;;;;;;10.77;100.00;102135.00;6539713;22;19911;-77
2022/08/29 04:55:11;;;;;;;;;;;;;;;10.68;100.00;102135.69;6539619;22;19923;-77
2022/08/29 04:57:42;;;;;;;;;;;;;;;10.50;100.00;102141.41;6537446;22;19915;-77
2022/08/29 05:00:15;;;;;;;;;;;;;;;10.29;100.00;102143.75;6537220;22;19908;-77
2022/08/29 05:02:47;;;;;;;;;;;;;;;10.20;100.00;102147.03;6537112;22;19911;-77
2022/08/29 05:05:18;;;;;;;;;;;;;;;10.29;100.00;102137.53;6536511;22;19908;-77
2022/08/29 05:07:49;;;;;;;;;;;;;;;10.52;100.00;102136.78;6538165;22;20290;-77
2022/08/29 05:10:21;;;;;;;;;;;;;;;10.79;100.00;102130.41;6537156;22;19916;-77
2022/08/29 05:12:52;;;;;;;;;;;;;;;10.96;100.00;102132.69;6539136;22;20049;-77
2022/08/29 05:15:23;;;;;;;;;;;;;;;11.06;100.00;102140.00;6511866;22;19907;-77
2022/08/29 05:17:55;;;;;;;;;;;;;;;11.14;100.00;102142.97;6538366;22;20349;-77
2022/08/29 05:20:26;;;;;;;;;;;;;;;11.25;100.00;102145.69;6535968;22;19915;-77
2022/08/29 05:22:58;;;;;;;;;;;;;;;11.38;100.00;102156.31;6536340;22;19914;-77
2022/08/29 05:25:29;;;;;;;;;;;;;;;11.42;100.00;102155.09;6538044;22;19914;-77
2022/08/29 05:28:00;;;;;;;;;;;;;;;11.38;100.00;102161.66;6538198;22;19904;-77
2022/08/29 05:30:32;;;;;;;;;;;;;;;11.38;100.00;102158.13;6538746;22;20278;-77
2022/08/29 05:33:04;;;;;;;;;;;;;;;11.48;100.00;102167.13;6538853;22;19903;-77
2022/08/29 05:35:35;;;;;;;;;;;;;;;11.51;100.00;102170.44;6540840;22;19911;-78
2022/08/29 05:38:06;;;;;;;;;;;;;;;11.51;100.00;102167.75;6539402;22;19912;-78
2022/08/29 05:40:37;;;;;;;;;;;;;;;11.51;100.00;102174.94;6512899;22;19907;-77
2022/08/29 05:43:10;;;;;;;;;;;;;;;11.50;100.00;102175.88;6512402;22;19907;-78
2022/08/29 05:45:41;;;;;;;;;;;;;;;11.56;100.00;102177.25;6539013;22;19914;-77
2022/08/29 05:48:13;;;;;;;;;;;;;;;11.70;100.00;102169.88;6538455;22;19907;-77
2022/08/29 05:50:44;;;;;;;;;;;;;;;11.87;100.00;102179.28;6538813;22;19907;-78
2022/08/29 05:53:18;;;;;;;;;;;;;;;11.96;100.00;102183.09;6537728;22;19962;-78
2022/08/29 05:55:49;;;;;;;;;;;;;;;12.06;100.00;102183.22;6538985;22;20344;-78
2022/08/29 05:58:20;;;;;;;;;;;;;;;12.22;100.00;102178.41;6539371;22;19982;-78
2022/08/29 06:00:51;;;;;;;;;;;;;;;12.36;100.00;102184.47;6539667;22;19977;-78
2022/08/29 06:03:23;;;;;;;;;;;;;;;12.37;100.00;102183.50;6536302;22;19914;-78
2022/08/29 06:05:54;;;;;;;;;;;;;;;12.45;100.00;102189.97;6536813;22;19908;-78
2022/08/29 06:08:25;;;;;;;;;;;;;;;12.57;100.00;102196.16;6539228;22;19915;-78
2022/08/29 06:10:56;;;;;;;;;;;;;;;12.72;100.00;102185.19;6539269;22;19958;-78
2022/08/29 06:13:27;;;;;;;;;;;;;;;12.88;100.00;102191.00;6511835;22;20066;-78
2022/08/29 06:15:59;;;;;;;;;;;;;;;13.05;100.00;102195.00;6538728;22;19934;-77
2022/08/29 06:18:30;;;;;;;;;;;;;;;13.10;100.00;102190.09;6538597;22;19903;-77
2022/08/29 06:21:05;;;;;;;;;;;;;;;13.19;100.00;102200.06;6512015;22;19904;-77
2022/08/29 06:23:37;;;;;;;;;;;;;;;13.28;100.00;102200.28;6511593;22;19907;-77
2022/08/29 06:26:09;;;;;;;;;;;;;;;13.35;100.00;102194.31;6538579;22;19911;-77
2022/08/29 06:28:44;;;;;;;;;;;;;;;13.42;100.00;102192.81;6538543;22;19990;-77
2022/08/29 06:31:19;;;;;;;;;;;;;;;13.54;100.00;102190.09;6538398;22;19933;-78
2022/08/29 06:33:51;;;;;;;;;;;;;;;13.63;100.00;102197.38;6538378;22;19911;-77
2022/08/29 06:36:24;;;;;;;;;;;;;;;13.74;100.00;102191.09;6540076;22;19908;-77
2022/08/29 06:38:56;;;;;;;;;;;;;;;13.89;100.00;102195.16;6513297;22;19908;-77
2022/08/29 06:41:28;;;;;;;;;;;;;;;13.98;100.00;102194.34;6540517;22;19907;-77
2022/08/29 06:44:00;;;;;;;;;;;;;;;14.13;100.00;102194.88;6540115;22;20206;-77
2022/08/29 06:46:35;;;;;;;;;;;;;;;14.30;100.00;102196.06;6540306;22;20022;-77
2022/08/29 06:49:08;;;;;;;;;;;;;;;14.50;100.00;102199.72;6539365;22;19915;-77
2022/08/29 06:51:41;;;;;;;;;;;;;;;14.88;100.00;102213.41;6540205;22;20318;-77
2022/08/29 06:54:12;;;;;;;;;;;;;;;15.38;100.00;102208.00;6539644;22;19943;-77
2022/08/29 06:56:44;;;;;;;;;;;;;;;15.81;100.00;102208.56;6539752;22;20393;-77
2022/08/29 06:59:17;;;;;;;;;;;;;;;16.16;100.00;102201.69;6512413;22;20388;-77
2022/08/29 07:01:48;;;;;;;;;;;;;;;16.50;100.00;102201.16;6512448;22;19918;-77
2022/08/29 07:04:19;;;;;;;;;;;;;;;16.87;100.00;102193.06;6513143;22;19904;-77
2022/08/29 07:06:50;;;;;;;;;;;;;;;17.32;100.00;102199.41;6512964;22;19908;-77
2022/08/29 07:09:21;;;;;;;;;;;;;;;17.90;100.00;102190.84;6540177;22;20550;-77
2022/08/29 07:11:53;;;;;;;;;;;;;;;18.68;100.00;102195.28;6539139;22;19907;-77
2022/08/29 07:14:24;;;;;;;;;;;;;;;19.56;100.00;102191.25;6539443;22;19926;-77
2022/08/29 07:16:55;;;;;;;;;;;;;;;20.51;100.00;102182.47;6539094;22;19908;-78
2022/08/29 07:19:26;;;;;;;;;;;;;;;21.38;100.00;102181.47;6540254;22;19907;-78
2022/08/29 07:21:57;;;;;;;;;;;;;;;22.17;100.00;102186.50;6512940;22;20246;-78
2022/08/29 07:24:29;;;;;;;;;;;;;;;22.91;100.00;102184.78;6512540;22;19907;-78
2022/08/29 07:27:00;;;;;;;;;;;;;;;23.64;100.00;102187.41;6539640;22;19904;-78
2022/08/29 07:29:32;;;;;;;;;;;;;;;24.37;100.00;102185.19;6539697;22;19917;-79
2022/08/29 07:32:04;;;;;;;;;;;;;;;25.10;100.00;102190.97;6539514;22;20273;-79
2022/08/29 07:34:35;;;;;;;;;;;;;;;25.47;100.00;102182.41;6539081;22;20265;-79
2022/08/29 07:37:06;;;;;;;;;;;;;;;25.60;100.00;102178.84;6539706;22;19903;-79
2022/08/29 07:39:38;;;;;;;;;;;;;;;25.52;96.56;102173.59;6538277;22;19910;-79
2022/08/29 07:42:09;;;;;;;;;;;;;;;25.37;100.00;102163.72;6539720;22;19904;-77
2022/08/29 07:44:40;;;;;;;;;;;;;;;25.09;100.00;102158.41;6539230;22;20007;-78
2022/08/29 07:47:12;;;;;;;;;;;;;;;24.66;100.00;102166.88;6513592;22;19982;-78
2022/08/29 07:49:43;;;;;;;;;;;;;;;24.50;100.00;102170.78;6539351;22;20245;-78
2022/08/29 07:52:14;;;;;;;;;;;;;;;24.31;100.00;102169.63;6539726;22;19912;-78
2022/08/29 07:54:45;;;;;;;;;;;;;;;24.21;100.00;102183.66;6538615;22;19915;-78
2022/08/29 07:57:17;;;;;;;;;;;;;;;24.16;100.00;102177.97;6539528;22;20258;-78
2022/08/29 07:59:49;;;;;;;;;;;;;;;24.30;100.00;102170.69;6538564;22;19907;-78
2022/08/29 08:02:20;;;;;;;;;;;;;;;24.47;100.00;102173.91;6539128;22;19978;-78
2022/08/29 08:04:51;;;;;;;;;;;;;;;24.54;97.24;102174.81;6512129;22;19904;-78
2022/08/29 08:07:22;;;;;;;;;;;;;;;24.67;97.24;102179.50;6539160;22;20318;-77
2022/08/29 08:09:54;;;;;;;;;;;;;;;24.62;90.15;102176.53;6539236;22;19934;-78
2022/08/29 08:12:25;;;;;;;;;;;;;;;24.63;87.16;102178.19;6512388;22;19998;-77
2022/08/29 08:14:57;;;;;;;;;;;;;;;24.66;98.32;102175.06;6512249;22;19910;-77
2022/08/29 08:17:28;;;;;;;;;;;;;;;24.82;96.21;102176.59;6540053;22;19904;-77
2022/08/29 08:19:59;;;;;;;;;;;;;;;24.84;93.69;102167.16;6540128;22;19904;-78
2022/08/29 08:22:31;;;;;;;;;;;;;;;25.01;100.00;102170.34;6513622;22;19911;-77
2022/08/29 08:25:03;;;;;;;;;;;;;;;25.00;100.00;102173.28;6539061;22;20391;-77
2022/08/29 08:27:35;;;;;;;;;;;;;;;25.35;86.53;102167.69;6537687;22;19942;-77
2022/08/29 08:30:06;;;;;;;;;;;;;;;25.54;78.40;102169.56;6539629;22;19919;-77
2022/08/29 08:32:38;;;;;;;;;;;;;;;25.82;76.16;102177.56;6540086;22;19913;-77
2022/08/29 08:35:10;;;;;;;;;;;;;;;26.17;85.47;102176.47;6540079;22;19907;-77
2022/08/29 08:37:42;;;;;;;;;;;;;;;25.95;79.07;102175.91;6539300;22;20318;-77
2022/08/29 08:40:18;;;;;;;;;;;;;;;25.50;75.43;102181.16;6540821;22;20332;-77
2022/08/29 08:42:50;;;;;;;;;;;;;;;25.10;82.52;102165.53;6541231;22;19915;-77
2022/08/29 08:45:25;;;;;;;;;;;;;;;24.92;92.08;102164.22;6539609;22;20250;-77
2022/08/29 08:48:06;;;;;;;;;;;;;;;24.98;97.31;102175.38;6513297;22;19912;-77
2022/08/29 08:50:37;;;;;;;;;;;;;;;24.90;81.06;102169.06;6540430;22;19908;-77
2022/08/29 08:53:11;;;;;;;;;;;;;;;24.88;85.67;102168.44;6541124;22;20003;-77
2022/08/29 08:55:48;;;;;;;;;;;;;;;25.10;76.22;102171.84;6540742;22;19930;-77
2022/08/29 08:58:33;;;;;;;;;;;;;;;24.78;69.99;102173.44;6513408;22;19903;-77
2022/08/29 09:01:26;;;;;;;;;;;;;;;24.89;81.16;102175.59;6512853;22;19910;-77
2022/08/29 09:04:16;;;;;;;;;;;;;;;24.83;79.44;102175.56;6539849;22;20226;-78
2022/08/29 09:07:08;;;;;;;;;;;;;;;24.88;73.50;102173.88;6540861;22;20547;-77
2022/08/29 09:09:42;;;;;;;;;;;;;;;25.00;77.01;102176.00;6540034;22;20413;-77
2022/08/29 09:12:24;;;;;;;;;;;;;;;24.73;72.47;102174.03;6541268;22;19911;-77
2022/08/29 09:14:55;;;;;;;;;;;;;;;25.00;76.00;102176.88;6514129;22;19907;-77
2022/08/29 09:17:31;;;;;;;;;;;;;;;25.35;71.50;102181.34;6540961;22;19907;-78
2022/08/29 09:20:07;;;;;;;;;;;;;;;25.27;71.89;102183.22;6540109;22;19908;-77
2022/08/29 09:22:39;;;;;;;;;;;;;;;24.94;73.63;102190.47;6538738;22;19979;-77
2022/08/29 09:25:11;;;;;;;;;;;;;;;24.71;81.29;102186.22;6514659;22;19907;-77
2022/08/29 09:27:43;;;;;;;;;;;;;;;24.68;96.52;102181.16;6540661;22;19917;-77
2022/08/29 09:30:21;;;;;;;;;;;;;;;24.58;84.74;102184.28;6541082;22;19907;-77
2022/08/29 09:32:55;;;;;;;;;;;;;;;24.49;87.43;102189.03;6540507;22;20278;-77
2022/08/29 09:35:41;;;;;;;;;;;;;;;24.32;84.71;102195.88;6539864;22;19995;-77
2022/08/29 09:38:23;;;;;;;;;;;;;;;24.31;88.25;102188.72;6541004;22;19911;-77
2022/08/29 09:40:54;;;;;;;;;;;;;;;24.31;86.83;102189.56;6541416;22;19903;-77
2022/08/29 09:43:25;;;;;;;;;;;;;;;24.15;91.86;102184.44;6541994;22;19911;-77
2022/08/29 09:46:04;;;;;;;;;;;;;;;24.02;89.31;102178.88;6541914;22;19926;-78
2022/08/29 09:48:36;;;;;;;;;;;;;;;23.95;91.20;102174.25;6546006;22;19927;-77
2022/08/29 09:51:09;;;;;;;;;;;;;;;24.05;88.86;102182.06;6560678;22;20201;-78
2022/08/29 09:53:41;;;;;;;;;;;;;;;24.28;87.41;102187.25;6556440;22;19965;-77
2022/08/29 09:56:24;;;;;;;;;;;;;;;24.84;88.06;102190.84;6560707;22;19908;-75
2022/08/29 09:58:57;;;;;;;;;;;;;;;27.50;73.59;102178.53;6529536;22;19904;-76
2022/08/29 10:01:31;;;;;;;;;;;;;;;29.20;52.14;102178.09;6543273;22;19978;-77
2022/08/29 10:04:03;;;;;;;;;;;;;;;28.56;50.74;102169.44;6515015;22;20245;-77
2022/08/29 10:06:39;;;;;;;;;;;;;;;27.39;51.73;102173.78;6514993;22;19907;-77
2022/08/29 10:09:22;;;;;;;;;;;;;;;26.58;62.55;102175.28;6542221;22;19904;-77
2022/08/29 10:12:05;;;;;;;;;;;;;;;26.54;64.30;102183.09;6541305;22;19904;-77
2022/08/29 10:14:42;;;;;;;;;;;;;;;26.53;64.63;102175.91;6541873;22;19968;-77
2022/08/29 10:20:10;;;;;;;;;;;;;;;27.97;59.81;102177.31;6542647;22;19908;-77
2022/08/29 10:22:51;;;;;;;;;;;;;;;28.33;53.63;102181.09;6539814;22;20280;-77
2022/08/29 10:25:31;;;;;;;;;;;;;;;28.16;55.11;102175.41;6540341;22;19907;-77
2022/08/29 10:28:11;;;;;;;;;;;;;;;27.78;59.98;102181.88;6540320;22;19913;-77
2022/08/29 10:30:49;;;;;;;;;;;;;;;30.00;54.43;102182.22;6513315;22;19983;-77
2022/08/29 10:33:28;;;;;;;;;;;;;;;32.97;40.47;102166.13;6540577;22;19910;-78
2022/08/29 10:36:12;;;;;;;;;;;;;;;34.97;36.19;102163.66;6539777;22;19918;-78
2022/08/29 10:38:50;;;;;;;;;;;;;;;37.03;29.81;102172.22;6539431;22;19904;-78
2022/08/29 10:41:31;;;;;;;;;;;;;;;37.72;30.28;102163.84;6539226;22;20412;-78
2022/08/29 10:44:21;;;;;;;;;;;;;;;38.89;29.15;102157.84;6537469;22;19907;-77
2022/08/29 10:46:59;;;;;;;;;;;;;;;40.51;24.30;102172.91;6538527;22;20459;-78
2022/08/29 10:49:32;;;;;;;;;;;;;;;40.75;22.26;102170.66;6538549;22;19989;-78
2022/08/29 10:52:04;;;;;;;;;;;;;;;39.61;22.84;102163.03;6538728;22;19986;-78
2022/08/29 10:54:50;;;;;;;;;;;;;;;39.93;23.77;102160.47;6538885;22;20042;-78
2022/08/29 10:57:36;;;;;;;;;;;;;;;41.32;23.01;102156.09;6539917;22;20238;-78
2022/08/29 11:00:09;;;;;;;;;;;;;;;41.95;21.27;102148.47;6538359;22;19954;-79
2022/08/29 11:02:45;;;;;;;;;;;;;;;42.33;20.77;102152.69;6538127;22;19911;-79
2022/08/29 11:05:23;;;;;;;;;;;;;;;41.88;20.05;102144.50;6539481;22;20042;-79
2022/08/29 11:08:04;;;;;;;;;;;;;;;39.95;22.33;102136.66;6540370;22;19923;-79
2022/08/29 11:10:39;;;;;;;;;;;;;;;38.99;23.69;102128.94;6512625;22;19908;-79
2022/08/29 11:13:19;;;;;;;;;;;;;;;38.86;23.54;102124.97;6540720;22;19911;-79
2022/08/29 11:15:51;;;;;;;;;;;;;;;40.34;23.32;102134.41;6540363;22;19926;-79
2022/08/29 11:18:30;;;;;;;;;;;;;;;40.45;22.31;102127.50;6540550;22;19986;-79
2022/08/29 11:21:05;;;;;;;;;;;;;;;41.79;20.85;102136.06;6539531;22;19934;-80
2022/08/29 11:23:41;;;;;;;;;;;;;;;42.37;19.98;102133.22;6540142;22;20390;-79
2022/08/29 11:26:21;;;;;;;;;;;;;;;42.04;20.47;102125.25;6539434;22;20427;-80
2022/08/29 11:29:12;;;;;;;;;;;;;;;42.40;19.59;102124.16;6539495;22;19935;-79
2022/08/29 11:32:00;;;;;;;;;;;;;;;43.48;19.06;102112.91;6513269;22;19911;-79
2022/08/29 11:34:51;;;;;;;;;;;;;;;43.46;18.45;102098.38;6512950;22;19914;-79
2022/08/29 11:37:51;;;;;;;;;;;;;;;44.12;18.17;102097.81;6539969;22;19931;-79
2022/08/29 11:40:41;;;;;;;;;;;;;;;44.23;19.15;102103.06;6539663;22;19903;-79
2022/08/29 11:43:14;;;;;;;;;;;;;;;43.35;18.95;102095.13;6540041;22;19910;-79
2022/08/29 11:45:55;;;;;;;;;;;;;;;43.45;19.89;102102.38;6539948;22;19916;-79
2022/08/29 11:48:35;;;;;;;;;;;;;;;43.98;17.50;102105.72;6539842;22;20321;-78
2022/08/29 11:51:25;;;;;;;;;;;;;;;43.29;17.86;102092.81;6512801;22;19911;-78
2022/08/29 11:54:16;;;;;;;;;;;;;;;43.37;17.74;102098.44;6512292;22;20277;-78
2022/08/29 11:56:47;;;;;;;;;;;;;;;44.51;18.48;102092.06;6539010;22;19969;-78
2022/08/29 11:59:47;;;;;;;;;;;;;;;44.64;17.28;102093.78;6539529;22;20006;-78
2022/08/29 12:02:27;;;;;;;;;;;;;;;44.13;17.75;102087.41;6465641;22;19915;-78
2022/08/29 12:04:58;;;;;;;;;;;;;;;44.62;17.35;102087.69;6535950;22;19990;-78
2022/08/29 12:07:42;;;;;;;;;;;;;;;45.41;15.70;102086.78;6539532;22;19919;-78
2022/08/29 12:10:22;;;;;;;;;;;;;;;46.35;15.84;102096.16;6539388;22;20626;-78
2022/08/29 12:13:00;;;;;;;;;;;;;;;46.85;15.93;102083.47;6539167;22;20300;-78
2022/08/29 12:15:32;;;;;;;;;;;;;;;46.48;15.11;102078.03;6539859;22;19903;-78
2022/08/29 12:18:12;;;;;;;;;;;;;;;46.44;14.78;102081.91;6539845;22;19910;-78
2022/08/29 12:20:47;;;;;;;;;;;;;;;46.52;15.56;102081.78;6512576;22;19923;-78
2022/08/29 12:23:24;;;;;;;;;;;;;;;46.63;15.25;102081.25;6539601;22;19970;-78
2022/08/29 12:25:56;;;;;;;;;;;;;;;46.99;15.05;102077.41;6539515;22;19957;-78
2022/08/29 12:28:32;;;;;;;;;;;;;;;47.35;15.00;102075.47;6540044;22;19960;-78
2022/08/29 12:31:23;;;;;;;;;;;;;;;47.21;14.63;102075.09;6509711;22;19911;-78
2022/08/29 12:34:06;;;;;;;;;;;;;;;47.00;14.76;102083.84;6539911;22;19907;-77
2022/08/29 12:36:55;;;;;;;;;;;;;;;46.95;14.69;102071.66;6539781;22;20314;-77
2022/08/29 12:39:26;;;;;;;;;;;;;;;46.67;15.44;102059.59;6537905;22;20250;-77
2022/08/29 12:42:07;;;;;;;;;;;;;;;46.87;15.17;102052.09;6512265;22;19965;-77
2022/08/29 12:44:40;;;;;;;;;;;;;;;46.04;15.48;102055.34;6538398;22;19908;-77
2022/08/29 12:47:31;;;;;;;;;;;;;;;46.08;15.63;102056.28;6539469;22;19903;-77
2022/08/29 12:50:05;;;;;;;;;;;;;;;45.96;15.95;102025.34;6537181;22;19957;-78
2022/08/29 12:52:37;;;;;;;;;;;;;;;45.48;15.81;102041.94;6538562;22;19994;-78
2022/08/29 12:55:22;;;;;;;;;;;;;;;45.41;16.06;102033.28;6511493;22;20325;-78
2022/08/29 12:57:55;;;;;;;;;;;;;;;44.85;16.26;102034.66;6537762;22;19911;-77
2022/08/29 13:00:28;;;;;;;;;;;;;;;43.34;17.72;102033.72;6538614;22;20322;-77
2022/08/29 13:02:59;;;;;;;;;;;;;;;43.42;17.64;102030.03;6539347;22;19949;-77
2022/08/29 13:05:32;;;;;;;;;;;;;;;44.44;17.36;102027.94;6538621;22;19930;-78
2022/08/29 13:08:06;;;;;;;;;;;;;;;44.85;16.47;102017.75;6512102;22;19935;-77
2022/08/29 13:10:39;;;;;;;;;;;;;;;44.85;16.26;102017.75;6538989;22;19911;-78
2022/08/29 13:13:14;;;;;;;;;;;;;;;44.43;16.74;102020.69;6539010;22;20290;-77
2022/08/29 13:15:49;;;;;;;;;;;;;;;44.66;16.61;102007.06;6539065;22;19915;-78